METAR Data
IDs: Format: Raw Decoded Include TAF

Data at: 1457 UTC 22 Apr 2021

KMCO 221453Z 02009KT 10SM CLR 21/11 A3013 RMK AO2 SLP200 T02110111 51007
KMCO 221353Z 03013KT 10SM CLR 19/10 A3012 RMK AO2 SLP198 T01940100
KMCO 221253Z 01012KT 10SM FEW200 18/10 A3012 RMK AO2 SLP197 T01830100
KMCO 221153Z 36011KT 10SM FEW200 17/10 A3010 RMK AO2 SLP192 T01720100 10194 20161 51024
KMCO 221053Z 36007KT 10SM FEW060 16/11 A3008 RMK AO2 SLP185 T01610111
KMCO 220953Z 36007KT 10SM CLR 17/12 A3006 RMK AO2 SLP177 T01670122
KMCO 220853Z 35009KT 10SM CLR 18/14 A3003 RMK AO2 SLP168 T01830144 53010
KMCO 220753Z 33008KT 10SM CLR 19/16 A3000 RMK AO2 SLP158 T01890156
KMCO 220653Z 32005KT 10SM CLR 19/16 A3000 RMK AO2 SLP157 T01890156
KMCO 220553Z 32010KT 10SM CLR 19/15 A3000 RMK AO2 SLP158 T01940150 10256 20194 58007
KMCO 220453Z 29008KT 10SM CLR 20/14 A3003 RMK AO2 SLP168 T02000139 402940200
KMCO 220353Z 28008KT 10SM FEW250 21/13 A3003 RMK AO2 SLP168 T02060128
KMCO 220253Z 26006KT 10SM FEW250 21/12 A3002 RMK AO2 SLP165 T02060117 53019
KMCO 220153Z 26008KT 10SM BKN250 22/11 A3000 RMK AO2 SLP158 T02220106
KMCO 220053Z 26006KT 10SM BKN250 23/11 A2999 RMK AO2 SLP152 T02330111
KMCO 212353Z 27010KT 10SM FEW050 SCT250 26/09 A2997 RMK AO2 SLP146 T02560094 10294 20256 53011
KMCO 212253Z 28011G19KT 10SM FEW050 FEW200 FEW300 28/09 A2995 RMK AO2 SLP139 T02830094
KMCO 212153Z 27011KT 10SM FEW200 FEW300 29/13 A2993 RMK AO2 SLP134 T02890133
KMCO 212053Z 27007KT 10SM FEW045 FEW170 FEW300 29/14 A2993 RMK AO2 SLP135 T02940139 56017
KMCO 211953Z 24010KT 10SM FEW045 FEW170 FEW300 29/14 A2995 RMK AO2 SLP139 T02890139
KMCO 211853Z 31009G15KT 10SM FEW045 FEW110 FEW300 29/14 A2997 RMK AO2 SLP146 T02890144
KMCO 211753Z 31010KT 10SM FEW046 FEW110 SCT300 28/14 A2998 RMK AO2 SLP151 T02830139 10283 20217 58008
KMCO 211653Z 26006KT 10SM FEW040 FEW100 BKN300 27/15 A2999 RMK AO2 SLP155 T02720150
KMCO 211553Z 29008KT 10SM FEW030 FEW070 SCT300 27/16 A3001 RMK AO2 SLP160 T02670156
KMCO 211453Z 30006KT 10SM SCT021 SCT065 25/18 A3001 RMK AO2 SLP159 T02500183 51009
KMCO 211353Z 31007KT 10SM SCT016 BKN065 23/19 A3000 RMK AO2 SLP157 T02330189
KMCO 211305Z 31007KT 10SM FEW011 SCT015 BKN065 23/20 A3000 RMK AO2 T02280200
KMCO 211253Z 30005KT 10SM FEW010 BKN015 BKN065 22/20 A3000 RMK AO2 SLP157 T02220200
KMCO 211236Z 28005KT 10SM BKN013 BKN065 22/20 A2999 RMK AO2 BKN013 V SCT T02220200
KMCO 211153Z 30007KT 10SM SCT010 SCT019 BKN075 22/21 A2998 RMK AO2 SLP150 70246 T02170206 10222 20200 53009
KMCO 211053Z 25003KT 10SM FEW013 SCT020 BKN036 22/21 A2997 RMK AO2 SLP148 T02170211
KMCO 210953Z 24004KT 10SM FEW015 SCT027 OVC038 22/21 A2995 RMK AO2 SLP142 T02170206
KMCO 210946Z 23004KT 10SM FEW012 SCT027 OVC036 22/21 A2995 RMK AO2 T02170211
KMCO 210853Z 21003KT 10SM FEW007 BKN020 OVC039 21/21 A2995 RMK AO2 SLP141 T02110206 53002
KMCO 210753Z 22004KT 10SM FEW007 OVC029 22/21 A2995 RMK AO2 SLP141 T02170206
KMCO 210653Z 20004KT 10SM FEW008 OVC020 21/20 A2994 RMK AO2 SLP137 T02110200
KMCO 210614Z 19004KT 10SM FEW009 BKN018 BKN045 21/20 A2995 RMK AO2 T02060200
KMCO 210553Z 17003KT 10SM FEW006 SCT020 BKN045 20/20 A2995 RMK AO2 SLP139 T02000200 10211 20194 58007
KMCO 210453Z 00000KT 9SM FEW007 SCT020 BKN044 21/20 A2996 RMK AO2 SLP143 T02060200 402440189
KMCO 210353Z 00000KT 10SM FEW007 FEW026 SCT040 20/19 A2997 RMK AO2 SLP146 T02000194